createdAt,value
2018-09-06T00:01:22.372Z,5.92
2018-09-06T00:03:51.427Z,6.55
2018-09-06T00:06:19.608Z,6.37
2018-09-06T00:08:47.800Z,7.15
2018-09-06T00:11:15.917Z,7.30
2018-09-06T00:13:44.098Z,6.55
2018-09-06T00:16:12.271Z,6.42
2018-09-06T00:18:40.409Z,6.70
2018-09-06T00:21:08.573Z,6.75
2018-09-06T00:23:36.739Z,6.47
2018-09-06T00:26:04.911Z,6.30
2018-09-06T00:28:33.095Z,6.80
2018-09-06T00:31:01.289Z,7.60
2018-09-06T00:33:29.442Z,7.80
2018-09-06T00:35:57.650Z,7.25
2018-09-06T00:38:25.838Z,7.28
2018-09-06T00:40:54.082Z,6.28
2018-09-06T00:43:22.265Z,7.30
2018-09-06T00:45:50.464Z,6.85
2018-09-06T00:48:18.628Z,6.12
2018-09-06T00:50:46.793Z,7.15
2018-09-06T00:53:14.959Z,7.17
2018-09-06T00:55:43.151Z,7.87
2018-09-06T00:58:11.375Z,7.10
2018-09-06T01:00:39.592Z,6.12
2018-09-06T01:03:07.766Z,6.87
2018-09-06T01:05:35.936Z,6.85
2018-09-06T01:08:04.111Z,6.75
2018-09-06T01:10:32.285Z,7.22
2018-09-06T01:13:00.431Z,7.00
2018-09-06T01:15:28.581Z,7.17
2018-09-06T01:17:56.802Z,7.37
2018-09-06T01:20:24.983Z,8.53
2018-09-06T01:22:53.160Z,7.45
2018-09-06T01:25:21.324Z,7.80
2018-09-06T01:27:49.483Z,8.70
2018-09-06T01:30:17.671Z,7.92
2018-09-06T01:32:45.852Z,7.50
2018-09-06T01:35:14.011Z,8.08
2018-09-06T01:37:42.136Z,7.65
2018-09-06T01:40:10.289Z,8.40
2018-09-06T01:42:38.418Z,8.70
2018-09-06T01:45:06.616Z,9.80
2018-09-06T01:47:34.735Z,9.08
2018-09-06T01:50:02.883Z,8.48
2018-09-06T01:52:31.066Z,8.85
2018-09-06T01:54:59.206Z,9.20
2018-09-06T01:57:27.357Z,8.75
2018-09-06T01:59:55.529Z,9.63
2018-09-06T02:02:23.717Z,10.68
2018-09-06T02:04:51.874Z,11.00
2018-09-06T02:07:20.078Z,10.00
2018-09-06T02:09:48.256Z,9.58
2018-09-06T02:12:16.398Z,10.15
2018-09-06T02:14:44.558Z,9.83
2018-09-06T02:17:12.785Z,8.65
2018-09-06T02:19:40.908Z,10.28
2018-09-06T02:22:09.088Z,9.30
2018-09-06T02:24:37.301Z,10.35
2018-09-06T02:27:05.440Z,9.65
2018-09-06T02:29:33.632Z,10.28
2018-09-06T02:32:02.042Z,11.25
2018-09-06T02:34:30.184Z,10.23
2018-09-06T02:36:58.365Z,10.45
2018-09-06T02:39:26.513Z,11.25
2018-09-06T02:41:54.676Z,11.40
2018-09-06T02:44:22.806Z,12.00
2018-09-06T02:46:50.935Z,11.85
2018-09-06T02:49:23.329Z,11.40
2018-09-06T02:51:51.542Z,11.83
2018-09-06T02:54:19.676Z,13.10
2018-09-06T02:56:47.866Z,12.55
2018-09-06T02:59:16.024Z,13.08
2018-09-06T03:01:44.252Z,13.10
2018-09-06T03:04:12.384Z,15.15
2018-09-06T03:06:40.555Z,14.40
2018-09-06T03:09:08.725Z,14.50
2018-09-06T03:11:42.365Z,14.75
2018-09-06T03:14:10.771Z,14.75
2018-09-06T03:16:39.044Z,15.32
2018-09-06T03:19:07.243Z,15.88
2018-09-06T03:21:35.628Z,16.70
2018-09-06T03:24:03.819Z,16.57
2018-09-06T03:26:31.976Z,16.20
2018-09-06T03:29:00.144Z,17.98
2018-09-06T03:31:28.292Z,18.52
2018-09-06T03:33:56.475Z,15.50
2018-09-06T03:36:24.644Z,15.70
2018-09-06T03:38:52.759Z,17.02
2018-09-06T03:41:21.970Z,18.87
2018-09-06T03:43:50.096Z,17.48
2018-09-06T03:46:18.231Z,19.57
2018-09-06T03:48:46.379Z,19.50
2018-09-06T03:51:14.536Z,19.65
2018-09-06T03:53:42.699Z,18.95
2018-09-06T03:56:10.856Z,19.77
2018-09-06T03:58:39.010Z,19.65
2018-09-06T04:01:07.203Z,21.07
2018-09-06T04:03:35.397Z,20.30
2018-09-06T04:06:03.549Z,20.82
2018-09-06T04:08:31.740Z,21.85
2018-09-06T04:10:59.893Z,22.77
2018-09-06T04:13:28.075Z,23.00
2018-09-06T04:15:56.213Z,22.77
2018-09-06T04:18:24.370Z,21.77
2018-09-06T04:20:52.517Z,23.45
2018-09-06T04:23:20.635Z,23.18
2018-09-06T04:25:48.782Z,23.65
2018-09-06T04:28:16.929Z,22.77
2018-09-06T04:30:45.116Z,26.95
2018-09-06T04:33:13.319Z,25.48
2018-09-06T04:35:41.449Z,27.22
2018-09-06T04:38:09.576Z,27.00
2018-09-06T04:40:37.799Z,28.38
2018-09-06T04:43:06.068Z,26.42
2018-09-06T04:45:34.298Z,28.67
2018-09-06T04:48:02.435Z,30.48
2018-09-06T04:50:30.587Z,30.32
2018-09-06T04:52:58.745Z,31.07
2018-09-06T04:55:26.977Z,29.02
2018-09-06T04:57:55.111Z,31.55
2018-09-06T05:00:23.346Z,30.40
2018-09-06T05:02:51.777Z,28.95
2018-09-06T05:05:19.953Z,29.40
2018-09-06T05:07:48.143Z,28.45
2018-09-06T05:10:16.289Z,30.30
2018-09-06T05:12:44.469Z,29.15
2018-09-06T05:15:12.708Z,29.32
2018-09-06T05:17:40.907Z,30.00
2018-09-06T05:20:09.166Z,27.93
2018-09-06T05:22:37.384Z,30.52
2018-09-06T05:25:05.537Z,31.97
2018-09-06T05:27:33.730Z,31.23
2018-09-06T05:30:01.925Z,29.60
2018-09-06T05:32:30.074Z,31.48
2018-09-06T05:34:58.237Z,31.97
2018-09-06T05:37:26.395Z,32.23
2018-09-06T05:39:54.564Z,33.00
2018-09-06T05:42:22.724Z,33.45
2018-09-06T05:44:50.876Z,36.10
2018-09-06T05:47:19.046Z,34.45
2018-09-06T05:49:47.156Z,32.95
2018-09-06T05:52:15.296Z,33.73
2018-09-06T05:54:43.637Z,36.05
2018-09-06T05:57:11.834Z,34.15
2018-09-06T05:59:39.975Z,36.53
2018-09-06T06:02:08.136Z,34.92
2018-09-06T06:04:36.424Z,35.60
2018-09-06T06:07:04.628Z,36.10
2018-09-06T06:09:32.878Z,34.40
2018-09-06T06:12:01.040Z,37.15
2018-09-06T06:14:29.253Z,35.58
2018-09-06T06:16:57.469Z,34.48
2018-09-06T06:19:25.749Z,35.55
2018-09-06T06:21:53.986Z,34.90
2018-09-06T06:24:22.232Z,33.15
2018-09-06T06:26:50.498Z,33.73
2018-09-06T06:29:19.912Z,33.73
2018-09-06T06:31:48.286Z,32.50
2018-09-06T06:34:16.415Z,35.83
2018-09-06T06:36:45.673Z,34.45
2018-09-06T06:39:14.850Z,36.13
2018-09-06T06:41:43.330Z,30.00
2018-09-06T06:44:11.815Z,33.02
2018-09-06T06:46:39.999Z,33.80
2018-09-06T06:49:08.205Z,33.20
2018-09-06T06:51:39.773Z,30.00
2018-09-06T06:54:07.999Z,31.68
2018-09-06T06:56:36.232Z,32.55
2018-09-06T06:59:04.405Z,31.17
2018-09-06T07:01:32.889Z,30.85
2018-09-06T07:04:01.129Z,29.15
2018-09-06T07:06:29.709Z,28.25
2018-09-06T07:08:57.854Z,27.70
2018-09-06T07:11:26.028Z,28.02
2018-09-06T07:13:54.254Z,31.23
2018-09-06T07:16:22.455Z,29.27
2018-09-06T07:18:50.624Z,27.77
2018-09-06T07:21:18.813Z,28.25
2018-09-06T07:23:46.983Z,26.85
2018-09-06T07:26:15.161Z,29.77
2018-09-06T07:28:43.353Z,28.25
2018-09-06T07:31:11.520Z,27.63
2018-09-06T07:33:39.641Z,28.03
2018-09-06T07:36:07.818Z,26.50
2018-09-06T07:38:35.976Z,26.23
2018-09-06T07:41:04.137Z,26.53
2018-09-06T07:43:32.277Z,29.53
2018-09-06T07:46:00.472Z,28.50
2018-09-06T07:48:28.632Z,27.75
2018-09-06T07:50:56.775Z,28.02
2018-09-06T07:53:25.032Z,27.05
2018-09-06T07:55:53.335Z,27.47
2018-09-06T07:58:21.513Z,26.47
2018-09-06T08:00:49.829Z,24.32
2018-09-06T08:03:18.033Z,25.30
2018-09-06T08:05:46.188Z,27.60
2018-09-06T08:08:14.386Z,26.00
2018-09-06T08:10:42.553Z,26.40
2018-09-06T08:13:10.668Z,27.00
2018-09-06T08:15:38.826Z,24.10
2018-09-06T08:18:06.972Z,27.07
2018-09-06T08:20:35.128Z,26.87
2018-09-06T08:23:03.289Z,26.60
2018-09-06T08:25:31.820Z,27.80
2018-09-06T08:27:59.993Z,27.70
2018-09-06T08:30:28.185Z,28.27
2018-09-06T08:32:56.312Z,27.87
2018-09-06T08:35:24.485Z,28.90
2018-09-06T08:37:52.677Z,28.03
2018-09-06T08:40:20.792Z,27.23
2018-09-06T08:42:49.040Z,28.07
2018-09-06T08:45:17.292Z,30.37
2018-09-06T08:47:45.433Z,29.23
2018-09-06T08:50:13.669Z,27.07
2018-09-06T08:52:41.853Z,28.37
2018-09-06T08:55:10.044Z,26.60
2018-09-06T08:57:38.179Z,27.60
2018-09-06T09:00:06.363Z,26.67
2018-09-06T09:02:34.612Z,27.50
2018-09-06T09:05:02.781Z,24.20
2018-09-06T09:07:31.007Z,24.77
2018-09-06T09:09:59.172Z,23.93
2018-09-06T09:12:27.378Z,24.60
2018-09-06T09:14:55.506Z,24.40
2018-09-06T09:17:23.670Z,22.73
2018-09-06T09:19:52.237Z,23.03
2018-09-06T09:22:20.501Z,24.30
2018-09-06T09:24:48.603Z,25.87
2018-09-06T09:27:16.793Z,21.83
2018-09-06T09:29:44.968Z,21.17
2018-09-06T09:32:13.135Z,23.10
2018-09-06T09:34:41.270Z,23.27
2018-09-06T09:37:09.472Z,22.70
2018-09-06T09:39:37.653Z,22.30
2018-09-06T09:42:05.880Z,20.23
2018-09-06T09:44:34.019Z,21.07
2018-09-06T09:49:29.733Z,21.13
2018-09-06T09:51:57.855Z,19.50
2018-09-06T09:54:25.976Z,20.37
2018-09-06T09:56:54.238Z,19.23
2018-09-06T09:59:22.957Z,19.90
2018-09-06T10:01:56.504Z,19.77
2018-09-06T10:04:29.997Z,19.70
2018-09-06T10:07:03.479Z,17.20
2018-09-06T10:09:32.170Z,18.70
2018-09-06T10:12:00.308Z,18.40
2018-09-06T10:14:28.530Z,16.83
2018-09-06T10:16:56.672Z,16.07
2018-09-06T10:19:24.841Z,17.90
2018-09-06T10:21:53.068Z,17.03
2018-09-06T10:24:21.256Z,16.63
2018-09-06T10:26:49.409Z,16.03
2018-09-06T10:29:17.603Z,16.40
2018-09-06T10:31:46.057Z,16.20
2018-09-06T10:34:14.182Z,16.17
2018-09-06T10:36:42.339Z,16.53
2018-09-06T10:39:10.964Z,15.07
2018-09-06T10:41:39.216Z,16.87
2018-09-06T10:44:07.491Z,16.90
2018-09-06T10:46:35.718Z,16.10
2018-09-06T10:49:03.895Z,16.00
2018-09-06T10:51:32.060Z,16.67
2018-09-06T10:54:00.426Z,16.63
2018-09-06T10:56:28.696Z,17.47
2018-09-06T10:58:56.888Z,15.10
2018-09-06T11:01:25.525Z,16.47
2018-09-06T11:03:54.901Z,15.03
2018-09-06T11:06:23.304Z,14.10
2018-09-06T11:08:51.596Z,14.93
2018-09-06T11:11:19.792Z,14.83
2018-09-06T11:13:47.926Z,14.60
2018-09-06T11:16:16.772Z,14.20
2018-09-06T11:18:44.942Z,14.27
2018-09-06T11:21:13.154Z,14.57
2018-09-06T11:23:41.201Z,14.80
2018-09-06T11:26:09.387Z,14.53
2018-09-06T11:28:37.542Z,16.60
2018-09-06T11:31:05.788Z,13.23
2018-09-06T11:33:33.922Z,15.37
2018-09-06T11:36:02.063Z,13.37
2018-09-06T11:38:30.179Z,13.90
2018-09-06T11:40:58.319Z,14.97
2018-09-06T11:43:26.483Z,14.40
2018-09-06T11:45:54.643Z,14.50
2018-09-06T11:48:22.760Z,13.33
2018-09-06T11:50:50.884Z,12.40
2018-09-06T11:53:18.992Z,13.47
2018-09-06T11:55:47.119Z,14.40
2018-09-06T11:58:15.247Z,15.00
2018-09-06T12:00:44.532Z,14.70
2018-09-06T12:03:12.700Z,13.17
2018-09-06T12:05:40.880Z,12.97
2018-09-06T12:08:09.044Z,13.27
2018-09-06T12:10:37.208Z,14.20
2018-09-06T12:13:05.373Z,14.03
2018-09-06T12:15:33.693Z,11.90
2018-09-06T12:18:01.847Z,13.50
2018-09-06T12:23:20.293Z,13.53
2018-09-06T12:25:48.497Z,11.63
2018-09-06T12:28:16.596Z,12.60
2018-09-06T12:30:44.767Z,14.17
2018-09-06T12:33:12.934Z,13.63
2018-09-06T12:35:41.019Z,12.20
2018-09-06T12:38:09.169Z,13.10
2018-09-06T12:40:37.284Z,11.90
2018-09-06T12:43:05.444Z,11.10
2018-09-06T12:45:33.591Z,11.50
2018-09-06T12:48:01.749Z,11.60
2018-09-06T12:50:29.905Z,11.30
2018-09-06T12:52:58.055Z,11.50
2018-09-06T12:55:26.142Z,10.87
2018-09-06T12:57:54.236Z,11.40
2018-09-06T13:00:22.360Z,9.33
2018-09-06T13:02:50.485Z,11.13
2018-09-06T13:05:18.624Z,11.83
2018-09-06T13:07:46.745Z,10.43
2018-09-06T13:10:14.873Z,11.77
2018-09-06T13:12:42.988Z,10.93
2018-09-06T13:18:02.024Z,11.10
2018-09-06T13:20:30.171Z,10.60
2018-09-06T13:22:58.335Z,11.03
2018-09-06T13:25:26.500Z,11.07
2018-09-06T13:27:54.639Z,11.60
2018-09-06T13:30:22.840Z,11.43
2018-09-06T13:32:51.015Z,10.97
2018-09-06T13:35:19.169Z,11.97
2018-09-06T13:37:47.308Z,11.70
2018-09-06T13:40:15.524Z,12.40
2018-09-06T13:42:43.884Z,12.30
2018-09-06T13:45:12.134Z,11.20
2018-09-06T13:47:40.396Z,11.93
2018-09-06T13:50:08.660Z,11.30
2018-09-06T13:52:36.880Z,11.57
2018-09-06T13:55:05.151Z,11.53
2018-09-06T13:57:33.347Z,11.37
2018-09-06T14:00:01.671Z,9.97
2018-09-06T14:02:29.907Z,11.20
2018-09-06T14:04:58.379Z,10.43
2018-09-06T14:07:26.765Z,10.70
2018-09-06T14:09:54.945Z,11.80
2018-09-06T14:12:23.148Z,11.53
2018-09-06T14:14:51.333Z,11.50
2018-09-06T14:17:19.652Z,11.60
2018-09-06T14:19:48.056Z,11.73
2018-09-06T14:22:16.548Z,12.07
2018-09-06T14:24:44.722Z,10.90
2018-09-06T14:27:12.916Z,10.50
2018-09-06T14:29:41.440Z,10.43
2018-09-06T14:32:09.802Z,11.43
2018-09-06T14:34:38.100Z,10.40
2018-09-06T14:37:06.584Z,10.20
2018-09-06T14:39:34.880Z,10.00
2018-09-06T14:42:03.083Z,9.40
2018-09-06T14:44:31.451Z,9.70
2018-09-06T14:47:00.054Z,10.87
2018-09-06T14:49:28.521Z,9.13
2018-09-06T14:51:56.693Z,10.50
2018-09-06T14:54:24.965Z,11.80
2018-09-06T14:56:53.620Z,10.33
2018-09-06T14:59:21.792Z,10.17
2018-09-06T15:01:50.065Z,9.90
2018-09-06T15:04:18.295Z,10.23
2018-09-06T15:06:46.581Z,9.47
2018-09-06T15:09:14.932Z,10.17
2018-09-06T15:11:43.184Z,10.70
2018-09-06T15:14:11.377Z,10.00
2018-09-06T15:16:39.760Z,9.63
2018-09-06T15:19:07.962Z,9.23
2018-09-06T15:21:36.205Z,10.20
2018-09-06T15:24:04.422Z,9.67
2018-09-06T15:26:32.603Z,9.67
2018-09-06T15:29:00.806Z,9.77
2018-09-06T15:31:29.115Z,10.20
2018-09-06T15:33:57.267Z,10.00
2018-09-06T15:36:25.504Z,8.97
2018-09-06T15:38:54.320Z,11.03
2018-09-06T15:41:22.481Z,10.50
2018-09-06T15:43:50.668Z,9.60
2018-09-06T15:46:18.931Z,10.10
2018-09-06T15:48:47.156Z,9.57
2018-09-06T15:51:15.312Z,8.40
2018-09-06T15:53:43.679Z,9.67
2018-09-06T15:56:11.914Z,10.43
2018-09-06T15:58:40.246Z,10.70
2018-09-06T16:01:08.592Z,10.30
2018-09-06T16:03:36.881Z,10.50
2018-09-06T16:06:05.195Z,9.67
2018-09-06T16:08:33.438Z,9.20
2018-09-06T16:11:01.612Z,9.97
2018-09-06T16:13:29.769Z,10.07
2018-09-06T16:15:57.901Z,10.73
2018-09-06T16:18:26.144Z,9.80
2018-09-06T16:20:54.256Z,9.57
2018-09-06T16:23:22.429Z,9.73
2018-09-06T16:25:50.585Z,9.33
2018-09-06T16:28:18.689Z,10.47
2018-09-06T16:30:46.839Z,10.10
2018-09-06T16:33:14.952Z,8.60
2018-09-06T16:35:43.107Z,9.10
2018-09-06T16:38:11.240Z,8.70
2018-09-06T16:40:39.367Z,9.30
2018-09-06T16:43:07.499Z,8.93
2018-09-06T16:45:35.610Z,8.70
2018-09-06T16:48:03.716Z,9.70
2018-09-06T16:50:31.848Z,9.07
2018-09-06T16:53:00.028Z,9.10
2018-09-06T16:55:28.135Z,8.63
2018-09-06T16:57:56.256Z,8.70
2018-09-06T17:00:24.399Z,9.80
2018-09-06T17:02:52.520Z,9.37
2018-09-06T17:05:20.628Z,9.17
2018-09-06T17:07:48.767Z,9.23
2018-09-06T17:10:17.019Z,8.50
2018-09-06T17:12:45.148Z,8.33
2018-09-06T17:15:13.322Z,10.00
2018-09-06T17:17:41.853Z,8.97
2018-09-06T17:20:10.083Z,8.67
2018-09-06T17:22:38.224Z,9.13
2018-09-06T17:25:06.436Z,10.20
2018-09-06T17:27:34.567Z,9.00
2018-09-06T17:30:02.727Z,9.10
2018-09-06T17:32:30.908Z,8.50
2018-09-06T17:34:59.060Z,8.70
2018-09-06T17:37:27.176Z,8.87
2018-09-06T17:39:55.359Z,8.17
2018-09-06T17:42:23.574Z,9.10
2018-09-06T17:44:51.746Z,8.43
2018-09-06T17:47:19.852Z,9.50
2018-09-06T17:49:48.900Z,9.47
2018-09-06T17:52:17.099Z,10.67
2018-09-06T17:54:45.252Z,9.80
2018-09-06T17:57:13.357Z,10.67
2018-09-06T17:59:41.467Z,9.50
2018-09-06T18:02:09.587Z,9.93
2018-09-06T18:04:37.728Z,9.90
2018-09-06T18:07:05.864Z,11.23
2018-09-06T18:09:33.985Z,11.17
2018-09-06T18:12:02.179Z,11.80
2018-09-06T18:14:30.306Z,11.80
2018-09-06T18:16:58.447Z,10.53
2018-09-06T18:19:26.608Z,12.63
2018-09-06T18:21:54.780Z,10.90
2018-09-06T18:24:22.971Z,12.40
2018-09-06T18:26:51.128Z,12.67
2018-09-06T18:29:19.268Z,11.63
2018-09-06T18:31:47.531Z,12.17
2018-09-06T18:34:15.680Z,12.23
2018-09-06T18:36:43.817Z,12.10
2018-09-06T18:39:12.221Z,12.07
2018-09-06T18:41:40.376Z,12.10
2018-09-06T18:44:08.632Z,11.67
2018-09-06T18:46:36.776Z,10.80
2018-09-06T18:49:05.037Z,11.10
2018-09-06T18:51:33.180Z,12.60
2018-09-06T18:54:01.386Z,12.30
2018-09-06T18:56:30.624Z,12.47
2018-09-06T18:58:58.865Z,11.57
2018-09-06T19:01:27.018Z,13.03
2018-09-06T19:03:55.213Z,13.10
2018-09-06T19:09:27.421Z,13.80
2018-09-06T19:11:55.626Z,15.03
2018-09-06T19:14:23.849Z,14.30
2018-09-06T19:16:51.999Z,14.33
2018-09-06T19:19:20.230Z,14.00
2018-09-06T19:21:48.411Z,15.50
2018-09-06T19:24:16.612Z,14.13
2018-09-06T19:26:44.836Z,13.70
2018-09-06T19:29:13.013Z,14.93
2018-09-06T19:31:41.255Z,13.07
2018-09-06T19:34:09.419Z,15.30
2018-09-06T19:36:37.628Z,14.70
2018-09-06T19:39:08.611Z,15.73
2018-09-06T19:41:36.796Z,16.07
2018-09-06T19:44:05.190Z,17.43
2018-09-06T19:46:33.343Z,16.10
2018-09-06T19:49:01.574Z,17.00
2018-09-06T19:51:30.095Z,16.50
2018-09-06T19:53:58.361Z,15.30
2018-09-06T19:56:27.614Z,18.07
2018-09-06T19:58:55.812Z,17.53
2018-09-06T20:01:24.142Z,18.10
2018-09-06T20:03:52.384Z,19.07
2018-09-06T20:06:20.562Z,16.03
2018-09-06T20:08:48.888Z,17.37
2018-09-06T20:11:17.148Z,14.17
2018-09-06T20:13:45.484Z,15.90
2018-09-06T20:16:13.761Z,17.47
2018-09-06T20:18:41.947Z,16.63
2018-09-06T20:21:10.159Z,16.57
2018-09-06T20:23:38.292Z,17.80
2018-09-06T20:26:06.633Z,21.07
2018-09-06T20:28:35.897Z,18.57
2018-09-06T20:31:04.124Z,18.03
2018-09-06T20:33:32.399Z,16.97
2018-09-06T20:36:00.626Z,19.90
2018-09-06T20:38:28.812Z,20.50
2018-09-06T20:40:57.112Z,19.63
2018-09-06T20:43:25.338Z,19.77
2018-09-06T20:45:53.552Z,19.83
2018-09-06T20:48:21.829Z,20.57
2018-09-06T20:50:50.028Z,19.73
2018-09-06T20:53:18.780Z,18.90
2018-09-06T20:55:47.131Z,19.20
2018-09-06T20:58:15.306Z,20.00
2018-09-06T21:00:43.557Z,19.63
2018-09-06T21:03:11.815Z,19.20
2018-09-06T21:05:39.960Z,19.43
2018-09-06T21:08:08.170Z,22.83
2018-09-06T21:10:36.452Z,24.37
2018-09-06T21:13:04.720Z,23.93
2018-09-06T21:15:33.000Z,22.53
2018-09-06T21:18:01.228Z,22.43
2018-09-06T21:20:29.427Z,21.70
2018-09-06T21:22:57.674Z,22.43
2018-09-06T21:25:25.876Z,25.03
2018-09-06T21:27:54.083Z,24.03
2018-09-06T21:30:22.231Z,27.53
2018-09-06T21:32:50.400Z,25.93
2018-09-06T21:35:18.675Z,25.70
2018-09-06T21:37:46.896Z,27.97
2018-09-06T21:40:15.263Z,31.00
2018-09-06T21:42:43.334Z,28.73
2018-09-06T21:45:11.564Z,30.60
2018-09-06T21:47:39.767Z,31.00
2018-09-06T21:50:07.929Z,31.60
2018-09-06T21:52:36.212Z,37.10
2018-09-06T21:55:04.473Z,36.03
2018-09-06T21:57:32.710Z,34.70
2018-09-06T22:00:01.139Z,37.87
2018-09-06T22:02:34.690Z,34.97
2018-09-06T22:05:02.868Z,36.83
2018-09-06T22:07:31.043Z,38.90
2018-09-06T22:09:59.185Z,40.67
2018-09-06T22:12:27.368Z,37.47
2018-09-06T22:14:55.579Z,38.90
2018-09-06T22:17:23.732Z,37.80
2018-09-06T22:19:51.906Z,39.07
2018-09-06T22:22:20.096Z,40.07
2018-09-06T22:24:48.289Z,38.90
2018-09-06T22:27:16.594Z,42.00
2018-09-06T22:29:44.989Z,41.20
2018-09-06T22:32:18.303Z,44.33
2018-09-06T22:34:46.643Z,42.77
2018-09-06T22:37:14.847Z,41.40
2018-09-06T22:39:43.004Z,40.93
2018-09-06T22:42:11.339Z,45.87
2018-09-06T22:44:39.526Z,45.57
2018-09-06T22:47:07.726Z,44.20
2018-09-06T22:49:35.976Z,46.40
2018-09-06T22:52:04.555Z,44.60
2018-09-06T22:54:32.724Z,47.10
2018-09-06T22:57:01.015Z,47.20
2018-09-06T22:59:29.360Z,45.70
2018-09-06T23:01:58.549Z,49.00
2018-09-06T23:04:26.719Z,45.13
2018-09-06T23:06:54.891Z,45.33
2018-09-06T23:09:23.109Z,46.10
2018-09-06T23:11:51.273Z,46.47
2018-09-06T23:14:19.474Z,46.47
2018-09-06T23:16:47.632Z,46.97
2018-09-06T23:19:15.803Z,47.00
2018-09-06T23:21:44.014Z,48.43
2018-09-06T23:24:12.178Z,47.70
2018-09-06T23:26:40.362Z,45.57
2018-09-06T23:29:08.555Z,47.20
2018-09-06T23:31:36.992Z,46.80
2018-09-06T23:34:05.202Z,48.07
2018-09-06T23:36:33.371Z,49.17
2018-09-06T23:39:01.635Z,48.97
2018-09-06T23:41:29.806Z,47.40
2018-09-06T23:43:58.035Z,43.87
2018-09-06T23:46:26.195Z,46.43
2018-09-06T23:48:54.381Z,47.53
2018-09-06T23:51:22.562Z,44.67
2018-09-06T23:53:50.735Z,46.60
2018-09-06T23:56:18.863Z,49.57
2018-09-06T23:58:47.081Z,48.93
